Terminal Aerodrome Forecast
Issued by NWS

Home | Current Version | Previous Version | Text Only | Print | Product List | Glossary On
Versions: 1 2 3 4 5 6 7 8 9 10 11 12 13 14 15 16 17 18 19 20 21 22 23 24 25 26 27 28 29 30 31 32 33 34 35 36 37 38 39 40 41 42 43 44 45 46 47 48 49 50
000
FTUS42 KGSP 250200 AAA
TAFHKY
TAF AMD
KHKY 250200Z 2502/2524 19008KT P6SM SCT002 BKN015 OVC040
      TEMPO 2502/2503 BKN002 OVC015
     FM250600 28008KT P6SM BKN060
     FM250800 27007KT P6SM SCT090=

USA.gov is the U.S. government's official web portal to all federal, state and local government web resources and services.